Time;durP1;ratioP1;P1;durP2;ratioP2;P2;SDS_P1;SDS_P2;PMS_P1;PMS_P2;Temp;Humidity;BMP_temperature;BMP_pressure;BME280_temperature;BME280_humidity;BME280_pressure;Samples;Min_cycle;Max_cycle;Signal;HPM_P1;HPM_P2
2021/06/17 00:01:45;;;;;;;5.78;5.18;;;;;;;24.87;45.20;99825.53;5032276;28;20076;-77
2021/06/17 00:04:12;;;;;;;6.05;5.15;;;;;;;24.86;45.42;99821.06;5032681;28;20486;-77
2021/06/17 00:06:39;;;;;;;6.32;5.72;;;;;;;24.85;45.26;99822.31;5033161;28;20064;-77
2021/06/17 00:09:07;;;;;;;6.53;5.00;;;;;;;24.81;45.40;99821.56;5032515;28;20053;-77
2021/06/17 00:11:34;;;;;;;6.80;5.00;;;;;;;24.80;45.49;99814.22;5033225;28;20159;-77
2021/06/17 00:14:04;;;;;;;6.55;5.00;;;;;;;24.81;45.52;99821.56;5033114;28;20058;-77
2021/06/17 00:16:34;;;;;;;6.38;5.28;;;;;;;24.80;45.51;99814.22;5033336;28;20064;-77
2021/06/17 00:19:02;;;;;;;6.63;5.05;;;;;;;24.77;45.60;99820.78;5032432;28;20053;-77
2021/06/17 00:21:29;;;;;;;7.18;4.93;;;;;;;24.73;45.46;99820.84;5033051;28;20056;-77
2021/06/17 00:23:56;;;;;;;6.28;5.00;;;;;;;24.80;45.59;99812.22;5032816;28;20053;-77
2021/06/17 00:26:24;;;;;;;5.45;4.93;;;;;;;24.79;45.35;99804.88;5032875;28;20049;-77
2021/06/17 00:28:51;;;;;;;7.38;4.90;;;;;;;24.76;45.05;99807.78;5032459;28;20045;-77
2021/06/17 00:31:20;;;;;;;6.00;5.03;;;;;;;24.73;45.59;99809.44;5032883;28;20505;-77
2021/06/17 00:33:47;;;;;;;7.03;5.30;;;;;;;24.67;45.44;99805.44;5032827;28;20430;-77
2021/06/17 00:36:17;;;;;;;6.22;4.78;;;;;;;24.75;45.04;99804.13;5032462;28;20418;-77
2021/06/17 00:38:44;;;;;;;5.38;4.78;;;;;;;24.73;45.36;99808.63;5032473;28;20064;-77
2021/06/17 00:41:12;;;;;;;5.68;5.10;;;;;;;24.75;45.33;99801.28;5032922;28;20083;-77
2021/06/17 00:43:39;;;;;;;6.75;5.03;;;;;;;24.69;45.42;99802.97;5034195;28;20049;-77
2021/06/17 00:46:09;;;;;;;5.63;5.13;;;;;;;24.65;45.73;99805.91;5036362;28;20414;-77
2021/06/17 00:48:38;;;;;;;6.82;4.88;;;;;;;24.65;45.44;99800.22;5036140;28;20054;-77
2021/06/17 00:51:05;;;;;;;5.53;5.03;;;;;;;24.61;45.53;99801.47;5035661;28;20052;-77
2021/06/17 00:53:35;;;;;;;5.35;4.85;;;;;;;24.68;45.84;99807.88;5036633;28;20046;-77
2021/06/17 00:56:03;;;;;;;7.25;4.82;;;;;;;24.67;45.67;99800.59;5036346;28;20340;-77
2021/06/17 00:58:32;;;;;;;6.68;5.00;;;;;;;24.65;45.48;99800.22;5036024;28;20391;-77
2021/06/17 01:00:59;;;;;;;6.32;4.88;;;;;;;24.67;45.80;99803.44;5036450;28;20053;-77
2021/06/17 01:03:26;;;;;;;7.13;4.88;;;;;;;24.60;45.35;99789.28;5032301;28;20419;-77
2021/06/17 01:05:56;;;;;;;5.10;4.60;;;;;;;24.60;45.37;99794.16;5035905;28;20459;-77
2021/06/17 01:08:37;;;;;;;7.03;4.93;;;;;;;24.58;45.85;99791.75;5035100;28;20060;-77
2021/06/17 01:11:14;;;;;;;6.47;4.65;;;;;;;24.60;45.32;99789.28;5036112;28;20367;-77
2021/06/17 01:13:49;;;;;;;5.18;4.68;;;;;;;24.56;45.77;99787.72;5036023;28;20391;-77
2021/06/17 01:16:23;;;;;;;5.82;4.50;;;;;;;24.55;45.46;99791.78;5035501;28;20061;-77
2021/06/17 01:18:55;;;;;;;5.00;4.50;;;;;;;24.57;45.84;99792.16;5034978;28;20057;-77
2021/06/17 01:21:33;;;;;;;6.05;4.78;;;;;;;24.51;45.63;99792.66;5035259;28;20497;-76
2021/06/17 01:24:25;;;;;;;6.68;4.70;;;;;;;24.48;45.57;99786.97;5035386;28;20049;-77
2021/06/17 01:27:21;;;;;;;5.97;4.38;;;;;;;24.44;45.57;99787.03;5035597;28;20064;-77
2021/06/17 01:29:54;;;;;;;5.68;4.82;;;;;;;24.42;46.03;99785.81;4984832;28;20498;-77
2021/06/17 01:32:24;;;;;;;6.60;5.63;;;;;;;24.38;46.09;99783.03;5035245;28;20057;-77
2021/06/17 01:34:56;;;;;;;5.30;4.80;;;;;;;24.29;45.81;99774.97;5035672;28;20415;-77
2021/06/17 01:37:26;;;;;;;5.18;4.68;;;;;;;24.30;45.92;99776.63;5036041;28;20497;-77
2021/06/17 01:39:55;;;;;;;8.20;5.60;;;;;;;24.25;47.01;99779.94;5034256;28;20049;-77
2021/06/17 01:42:29;;;;;;;7.32;4.55;;;;;;;24.22;46.64;99774.28;5035037;28;20057;-77
2021/06/17 01:45:00;;;;;;;7.10;5.32;;;;;;;24.13;48.48;99777.66;5035122;28;20057;-77
2021/06/17 01:47:30;;;;;;;6.40;5.80;;;;;;;24.02;48.47;99774.94;5034813;28;20053;-77
2021/06/17 01:49:58;;;;;;;7.05;5.50;;;;;;;23.93;49.14;99774.59;5034942;28;20065;-77
2021/06/17 01:52:29;;;;;;;8.32;6.15;;;;;;;23.80;49.08;99771.50;5035115;28;20049;-77
2021/06/17 01:54:58;;;;;;;6.38;4.72;;;;;;;23.70;48.13;99761.00;5034115;28;20049;-77
2021/06/17 01:57:26;;;;;;;8.50;5.47;;;;;;;23.66;48.88;99765.91;5035120;28;20053;-77
2021/06/17 01:59:54;;;;;;;6.07;5.47;;;;;;;23.57;48.74;99768.47;5034845;28;20057;-77
2021/06/17 02:02:26;;;;;;;6.28;5.50;;;;;;;23.53;49.38;99770.53;5034501;28;20056;-76
2021/06/17 02:04:55;;;;;;;5.72;5.20;;;;;;;23.46;50.38;99774.25;5034835;28;20494;-77
2021/06/17 02:07:24;;;;;;;6.38;5.50;;;;;;;23.42;49.45;99774.25;5034312;28;20702;-77
2021/06/17 02:09:53;;;;;;;5.55;5.00;;;;;;;23.34;49.56;99781.22;5034585;28;20443;-76
2021/06/17 02:12:24;;;;;;;6.13;5.50;;;;;;;23.28;50.15;99777.22;5034530;28;20053;-77
2021/06/17 02:14:52;;;;;;;6.80;5.82;;;;;;;23.21;50.66;99774.44;5033997;28;20049;-77
2021/06/17 02:17:23;;;;;;;6.53;5.65;;;;;;;23.20;49.71;99778.50;5034768;28;20057;-77
2021/06/17 02:19:51;;;;;;;6.20;5.30;;;;;;;23.17;49.47;99776.50;5034483;28;20053;-76
2021/06/17 02:22:21;;;;;;;5.55;5.05;;;;;;;23.20;49.16;99781.34;5034622;28;20068;-76
2021/06/17 02:24:55;;;;;;;6.47;4.90;;;;;;;23.24;49.14;99790.66;5034228;28;20054;-77
2021/06/17 02:27:28;;;;;;;6.75;5.07;;;;;;;23.24;49.12;99779.28;5034595;28;20053;-76
2021/06/17 02:30:00;;;;;;;5.65;5.03;;;;;;;23.23;49.14;99783.38;5034128;28;20053;-76
2021/06/17 02:32:31;;;;;;;6.63;5.13;;;;;;;23.24;49.38;99773.59;5034361;28;20057;-76
2021/06/17 02:35:03;;;;;;;7.05;5.78;;;;;;;23.17;50.49;99768.00;5034258;28;20053;-76
2021/06/17 02:37:33;;;;;;;6.53;5.93;;;;;;;23.08;50.98;99772.09;5035084;28;20057;-77
2021/06/17 02:40:01;;;;;;;;;;;;;;;23.00;50.30;99773.34;5034314;28;20068;-76
2021/06/17 02:42:30;;;;;;;8.52;6.25;;;;;;;22.93;51.88;99769.75;5034549;28;19928;-76
2021/06/17 02:44:57;;;;;;;7.55;5.70;;;;;;;22.89;51.77;99781.16;5033943;28;20057;-76
2021/06/17 02:47:25;;;;;;;7.50;5.88;;;;;;;22.78;52.72;99775.50;5033514;28;20481;-76
2021/06/17 02:49:56;;;;;;;6.88;6.18;;;;;;;22.69;52.72;99764.63;5033671;28;20053;-76
2021/06/17 02:52:24;;;;;;;9.07;6.35;;;;;;;22.57;53.44;99775.63;5032076;28;20049;-76
2021/06/17 02:54:52;;;;;;;8.52;5.82;;;;;;;22.50;52.61;99767.97;5033583;28;20053;-76
2021/06/17 02:57:22;;;;;;;7.05;5.22;;;;;;;22.46;51.72;99775.69;5033936;28;20064;-76
2021/06/17 03:00:10;;;;;;;6.70;5.38;;;;;;;22.44;51.48;99778.13;5033875;28;20080;-77
2021/06/17 03:02:45;;;;;;;6.45;4.93;;;;;;;22.52;51.00;99782.56;5033760;28;20064;-77
2021/06/17 03:05:18;;;;;;;6.97;5.43;;;;;;;22.63;50.99;99783.31;5033125;28;20072;-77
2021/06/17 03:07:50;;;;;;;7.25;5.10;;;;;;;22.74;50.49;99779.59;5033345;28;20057;-77
2021/06/17 03:10:22;;;;;;;6.47;5.10;;;;;;;22.76;50.31;99771.47;5033902;28;20049;-76
2021/06/17 03:12:50;;;;;;;7.05;5.88;;;;;;;22.70;52.01;99774.75;5033515;28;20057;-77
2021/06/17 03:15:25;;;;;;;11.73;7.35;;;;;;;22.63;53.09;99766.28;5033643;28;20053;-77
2021/06/17 03:17:55;;;;;;;7.53;6.03;;;;;;;22.60;53.15;99767.13;5033715;28;20499;-78
2021/06/17 03:20:27;;;;;;;8.73;6.53;;;;;;;22.54;53.06;99770.81;5034988;28;20049;-78
2021/06/17 03:22:56;;;;;;;10.13;6.63;;;;;;;22.48;53.23;99761.91;5034973;28;20060;-78
2021/06/17 03:25:26;;;;;;;10.57;6.72;;;;;;;22.44;53.76;99772.47;5034111;28;20399;-78
2021/06/17 03:28:02;;;;;;;9.93;7.03;;;;;;;22.34;54.34;99765.59;5021598;28;20383;-78
2021/06/17 03:30:30;;;;;;;9.27;6.88;;;;;;;22.21;54.54;99770.09;5014428;28;20391;-78
2021/06/17 03:33:00;;;;;;;7.00;6.40;;;;;;;22.12;54.28;99764.88;5015608;28;20433;-78
2021/06/17 03:35:32;;;;;;;8.27;6.82;;;;;;;22.03;55.08;99765.31;5015895;28;20053;-78
2021/06/17 03:38:02;;;;;;;7.38;5.78;;;;;;;21.94;54.28;99770.56;5015413;28;20472;-78
2021/06/17 03:40:32;;;;;;;8.85;6.72;;;;;;;21.94;55.70;99772.63;5015347;28;20498;-78
2021/06/17 03:43:01;;;;;;;9.20;7.50;;;;;;;21.89;55.89;99774.66;5030302;28;20080;-78
2021/06/17 03:45:30;;;;;;;10.07;7.38;;;;;;;21.82;56.25;99777.50;5034785;28;20487;-78
2021/06/17 03:47:58;;;;;;;8.82;6.78;;;;;;;21.78;56.40;99776.72;5033617;28;20050;-78
2021/06/17 03:50:26;;;;;;;8.50;7.43;;;;;;;21.73;56.48;99774.28;5033196;28;20054;-78
2021/06/17 03:52:57;;;;;;;11.68;7.55;;;;;;;21.70;56.87;99789.28;5033753;28;20062;-78
2021/06/17 03:55:25;;;;;;;8.02;6.80;;;;;;;21.60;57.09;99782.41;5032964;28;20080;-78
2021/06/17 03:57:56;;;;;;;11.00;7.85;;;;;;;21.55;57.45;99794.16;5033096;28;20057;-78
2021/06/17 04:00:25;;;;;;;9.93;7.32;;;;;;;21.50;57.56;99800.22;5033856;28;20061;-78
2021/06/17 04:02:54;;;;;;;12.18;8.07;;;;;;;21.44;57.73;99796.16;5033801;28;20053;-78
2021/06/17 04:05:22;;;;;;;10.00;7.55;;;;;;;21.38;57.64;99795.75;5034320;28;20049;-78
2021/06/17 04:07:56;;;;;;;11.20;7.78;;;;;;;21.34;58.19;99802.63;5033701;28;20061;-78
2021/06/17 04:10:25;;;;;;;9.07;8.20;;;;;;;21.35;58.05;99805.03;5033410;28;20049;-78
2021/06/17 04:12:56;;;;;;;10.98;8.00;;;;;;;21.34;58.25;99796.97;5032735;28;20056;-78
2021/06/17 04:15:25;;;;;;;9.82;7.53;;;;;;;21.31;58.43;99798.56;5033192;28;20052;-77
2021/06/17 04:17:55;;;;;;;9.98;7.25;;;;;;;21.34;58.28;99803.44;5035282;28;20060;-78
2021/06/17 04:20:25;;;;;;;10.30;7.38;;;;;;;21.35;58.21;99799.38;5037294;28;20061;-78
2021/06/17 04:22:54;;;;;;;10.82;8.10;;;;;;;21.38;58.37;99800.63;5037221;28;20072;-78
2021/06/17 04:25:24;;;;;;;11.52;8.70;;;;;;;21.40;58.36;99801.81;5037207;28;20054;-78
2021/06/17 04:27:55;;;;;;;12.52;8.32;;;;;;;21.38;58.53;99801.41;5037774;28;20076;-78
2021/06/17 04:30:25;;;;;;;9.95;8.07;;;;;;;21.39;58.82;99805.84;5037417;28;20068;-78
2021/06/17 04:32:53;;;;;;;8.82;7.93;;;;;;;21.44;58.77;99801.84;5036940;28;20516;-78
2021/06/17 04:35:23;;;;;;;8.77;7.88;;;;;;;21.47;58.45;99801.03;5037376;28;20060;-78
2021/06/17 04:37:52;;;;;;;11.55;7.25;;;;;;;21.53;58.43;99804.28;5038138;28;20056;-78
2021/06/17 04:40:24;;;;;;;7.70;6.90;;;;;;;21.59;58.32;99799.81;5037396;28;20056;-78
2021/06/17 04:42:57;;;;;;;9.43;7.68;;;;;;;21.65;58.06;99801.84;5037346;28;20050;-77
2021/06/17 04:45:28;;;;;;;8.50;7.13;;;;;;;21.68;58.04;99806.69;5037537;28;20057;-77
2021/06/17 04:47:58;;;;;;;10.77;8.05;;;;;;;21.76;57.63;99796.16;5036011;28;20471;-77
2021/06/17 04:50:26;;;;;;;9.07;7.75;;;;;;;21.81;57.54;99803.44;5036959;28;20050;-77
2021/06/17 04:53:13;;;;;;;8.15;7.25;;;;;;;21.82;57.27;99797.38;5037573;28;20045;-77
2021/06/17 04:55:46;;;;;;;8.73;7.07;;;;;;;21.86;57.04;99798.16;5037940;28;20065;-78
2021/06/17 04:58:15;;;;;;;7.70;6.90;;;;;;;21.92;56.91;99794.91;5037534;28;20475;-77
2021/06/17 05:00:43;;;;;;;8.07;6.43;;;;;;;21.93;56.98;99788.81;5037776;28;20414;-78
2021/06/17 05:03:10;;;;;;;7.85;6.95;;;;;;;21.98;57.06;99793.25;5038099;28;20149;-77
2021/06/17 05:05:38;;;;;;;10.93;7.55;;;;;;;22.07;56.78;99788.78;5038830;28;20046;-78
2021/06/17 05:10:56;;;;;;;8.98;7.28;;;;;;;22.25;56.84;99794.41;5037640;28;20057;-78
2021/06/17 05:13:27;;;;;;;7.28;6.55;;;;;;;22.37;55.96;99798.03;5037730;28;20057;-78
2021/06/17 05:15:55;;;;;;;6.55;5.57;;;;;;;22.57;54.38;99798.34;4976573;28;20065;-78
2021/06/17 05:18:23;;;;;;;7.93;5.68;;;;;;;22.79;53.23;99796.22;5022607;28;20414;-78
2021/06/17 05:20:50;;;;;;;5.90;5.05;;;;;;;22.99;52.08;99797.28;5036700;28;20053;-77
2021/06/17 05:23:21;;;;;;;6.63;5.00;;;;;;;23.18;51.49;99795.16;5035649;28;20071;-77
2021/06/17 05:25:49;;;;;;;5.97;5.22;;;;;;;23.37;51.38;99794.63;5036534;28;20065;-77
2021/06/17 05:28:20;;;;;;;5.80;5.20;;;;;;;23.55;50.89;99788.75;5037261;28;20056;-77
2021/06/17 05:30:49;;;;;;;7.78;5.43;;;;;;;23.71;51.61;99803.25;5037422;28;20045;-78
2021/06/17 05:33:17;;;;;;;7.32;5.13;;;;;;;23.86;51.03;99798.25;5035295;28;20042;-77
2021/06/17 05:35:46;;;;;;;7.80;6.05;;;;;;;23.94;53.72;99809.53;5028057;28;20484;-77
2021/06/17 05:38:16;;;;;;;7.47;6.45;;;;;;;23.99;54.97;99809.91;5037562;28;20049;-77
2021/06/17 05:40:43;;;;;;;7.55;6.20;;;;;;;23.96;54.50;99807.09;5032358;28;20049;-77
2021/06/17 05:43:10;;;;;;;9.68;6.35;;;;;;;24.04;54.10;99808.63;5034673;28;20049;-77
2021/06/17 05:45:38;;;;;;;11.63;7.28;;;;;;;24.10;54.18;99809.78;5033097;28;20363;-77
2021/06/17 05:48:08;;;;;;;7.97;5.97;;;;;;;24.18;53.58;99805.63;5029396;28;20446;-77
2021/06/17 05:50:36;;;;;;;9.85;6.10;;;;;;;24.20;54.37;99808.84;5035551;28;20045;-79
2021/06/17 05:53:03;;;;;;;11.40;6.45;;;;;;;24.35;53.48;99809.50;5030157;28;20053;-78
2021/06/17 05:55:31;;;;;;;11.40;6.68;;;;;;;24.47;54.13;99810.97;5034986;28;20049;-78
2021/06/17 05:57:58;;;;;;;9.52;6.28;;;;;;;24.58;54.45;99820.22;5037217;28;20411;-78
2021/06/17 06:00:26;;;;;;;12.13;6.47;;;;;;;24.68;55.00;99813.56;5035444;28;20056;-77
2021/06/17 06:02:53;;;;;;;9.35;7.00;;;;;;;24.76;55.59;99819.16;5034929;28;20521;-77
2021/06/17 06:05:22;;;;;;;9.85;6.07;;;;;;;24.86;54.60;99815.38;5036381;28;20068;-78
2021/06/17 06:07:56;;;;;;;8.77;6.25;;;;;;;24.94;55.40;99824.63;5038620;28;20050;-79
2021/06/17 06:10:24;;;;;;;7.97;6.63;;;;;;;25.02;57.54;99826.94;5036060;28;20372;-79
2021/06/17 06:12:51;;;;;;;8.55;6.88;;;;;;;25.13;56.39;99818.22;5035641;28;20053;-80
2021/06/17 06:15:19;;;;;;;9.52;6.78;;;;;;;25.18;54.75;99814.06;5039838;28;20059;-79
2021/06/17 06:17:46;;;;;;;11.23;5.90;;;;;;;25.23;52.07;99820.13;5035727;28;20064;-78
2021/06/17 06:20:14;;;;;;;5.93;4.97;;;;;;;25.33;50.70;99818.38;5030051;28;20049;-77
2021/06/17 06:22:43;;;;;;;6.30;5.07;;;;;;;25.40;50.24;99815.38;5037416;28;20052;-76
2021/06/17 06:25:11;;;;;;;8.20;5.25;;;;;;;25.51;50.57;99821.75;5033529;28;20057;-77
2021/06/17 06:27:41;;;;;;;6.10;5.07;;;;;;;25.62;49.28;99818.69;5034415;28;20053;-76
2021/06/17 06:30:12;;;;;;;6.90;5.00;;;;;;;25.75;48.56;99816.03;5033610;28;20402;-76
2021/06/17 06:32:39;;;;;;;6.68;4.63;;;;;;;25.86;47.44;99810.13;5034048;28;20049;-77
2021/06/17 06:35:09;;;;;;;7.85;4.35;;;;;;;26.05;45.15;99811.44;5034146;28;20060;-77
2021/06/17 06:37:39;;;;;;;6.30;4.40;;;;;;;26.21;44.19;99822.94;5034036;28;20054;-77
2021/06/17 06:40:09;;;;;;;7.57;4.13;;;;;;;26.42;43.75;99830.28;5031516;28;20060;-77
2021/06/17 06:42:36;;;;;;;7.00;4.38;;;;;;;26.59;43.21;99822.63;5032686;28;20053;-77
2021/06/17 06:45:04;;;;;;;5.40;4.20;;;;;;;26.77;43.41;99827.13;5033368;28;20057;-77
2021/06/17 06:47:32;;;;;;;6.32;4.30;;;;;;;26.88;42.71;99819.16;5031117;28;20060;-77
2021/06/17 06:49:59;;;;;;;7.40;4.07;;;;;;;27.08;42.07;99817.03;5024507;28;20398;-76
2021/06/17 06:52:26;;;;;;;4.82;4.10;;;;;;;27.24;42.48;99821.19;5031112;28;20593;-76
2021/06/17 06:54:58;;;;;;;5.15;3.92;;;;;;;27.28;40.95;99819.06;5029255;28;20431;-76
2021/06/17 06:57:27;;;;;;;4.45;4.03;;;;;;;27.50;40.99;99810.75;5027217;28;20054;-77
2021/06/17 06:59:54;;;;;;;5.40;4.15;;;;;;;27.59;40.71;99804.38;5029126;28;20053;-77
2021/06/17 07:02:22;;;;;;;5.53;3.97;;;;;;;27.75;41.07;99807.25;5013440;28;20054;-77
2021/06/17 07:04:49;;;;;;;6.25;4.70;;;;;;;27.86;40.54;99804.91;5030253;28;20052;-77
2021/06/17 07:07:17;;;;;;;6.30;4.60;;;;;;;27.90;40.26;99799.09;5025876;28;20517;-78
2021/06/17 07:09:44;;;;;;;4.85;4.35;;;;;;;28.07;39.24;99809.25;5036781;28;20064;-78
2021/06/17 07:12:12;;;;;;;4.38;3.97;;;;;;;28.18;39.69;99813.88;5034280;28;20060;-78
2021/06/17 07:14:41;;;;;;;4.87;4.10;;;;;;;28.24;38.82;99818.59;5029799;28;20045;-77
2021/06/17 07:17:08;;;;;;;;;;;;;;;28.30;38.80;99819.66;5033079;28;20057;-77
2021/06/17 07:19:36;;;;;;;5.80;4.13;;;;;;;28.41;38.87;99821.41;5031950;28;19921;-77
2021/06/17 07:22:03;;;;;;;5.15;4.20;;;;;;;28.45;38.90;99822.13;5030069;28;20057;-77
2021/06/17 07:24:31;;;;;;;5.88;4.30;;;;;;;28.61;38.07;99824.94;5033934;28;20053;-77
2021/06/17 07:26:58;;;;;;;7.85;4.20;;;;;;;28.69;37.73;99820.63;5036130;28;20061;-78
2021/06/17 07:29:25;;;;;;;5.70;4.38;;;;;;;28.78;37.84;99817.06;5036547;28;20052;-78
2021/06/17 07:31:54;;;;;;;5.03;3.95;;;;;;;28.99;37.50;99821.34;5035608;28;20380;-78
2021/06/17 07:34:22;;;;;;;6.45;4.90;;;;;;;29.09;37.48;99817.34;5033611;28;20072;-78
2021/06/17 07:36:51;;;;;;;5.88;4.18;;;;;;;29.09;36.33;99813.66;5036340;28;20061;-77
2021/06/17 07:39:19;;;;;;;6.43;4.15;;;;;;;29.28;37.04;99815.53;5035833;28;20057;-77
2021/06/17 07:41:46;;;;;;;4.68;3.85;;;;;;;29.37;36.61;99816.91;5032441;28;20406;-77
2021/06/17 07:44:14;;;;;;;5.88;3.92;;;;;;;29.58;36.54;99821.13;5036177;28;20068;-78
2021/06/17 07:46:41;;;;;;;5.25;3.92;;;;;;;29.71;36.52;99822.75;5036737;28;20060;-78
2021/06/17 07:49:10;;;;;;;5.50;3.90;;;;;;;29.87;35.02;99823.84;5032226;28;20695;-77
2021/06/17 07:51:37;;;;;;;4.93;4.32;;;;;;;29.99;36.01;99817.25;5032509;28;20048;-76
2021/06/17 07:54:05;;;;;;;5.05;4.28;;;;;;;30.15;35.21;99819.97;5036123;28;20068;-77
2021/06/17 07:56:33;;;;;;;5.93;4.00;;;;;;;30.45;34.55;99826.28;5036746;28;20053;-78
2021/06/17 07:59:01;;;;;;;5.40;4.07;;;;;;;31.31;33.81;99827.88;5035047;28;20057;-79
2021/06/17 08:01:28;;;;;;;4.43;3.90;;;;;;;32.34;31.71;99824.78;5031092;28;20057;-77
2021/06/17 08:03:55;;;;;;;8.02;4.00;;;;;;;33.30;30.19;99828.09;5032409;28;20057;-77
2021/06/17 08:06:24;;;;;;;5.57;4.05;;;;;;;33.78;28.21;99818.72;5038376;28;20049;-78
2021/06/17 08:08:51;;;;;;;4.85;3.63;;;;;;;34.29;28.04;99816.91;5035263;28;20076;-78
2021/06/17 08:11:19;;;;;;;5.57;3.75;;;;;;;34.81;27.22;99814.50;5024238;28;20061;-78
2021/06/17 08:13:46;;;;;;;6.18;3.33;;;;;;;35.49;25.52;99822.22;5028596;28;20072;-78
2021/06/17 08:16:13;;;;;;;7.40;4.35;;;;;;;35.86;25.16;99810.09;5037384;28;20061;-78
2021/06/17 08:18:41;;;;;;;5.65;3.40;;;;;;;36.06;25.04;99812.22;5038397;28;20060;-78
2021/06/17 08:21:08;;;;;;;4.13;3.72;;;;;;;36.79;23.59;99803.53;5036329;28;20049;-79
2021/06/17 08:23:37;;;;;;;7.60;3.65;;;;;;;37.29;23.56;99805.28;5025512;28;20220;-79
2021/06/17 08:26:04;;;;;;;6.75;3.45;;;;;;;38.13;22.63;99807.91;5024389;28;20061;-77
2021/06/17 08:28:32;;;;;;;3.53;3.22;;;;;;;39.03;20.58;99816.84;5030226;28;20061;-78
2021/06/17 08:30:59;;;;;;;4.28;3.20;;;;;;;39.20;20.71;99816.84;5036084;28;20479;-77
2021/06/17 08:33:26;;;;;;;5.13;3.28;;;;;;;39.85;19.27;99815.69;5036001;28;20049;-80
2021/06/17 08:35:53;;;;;;;4.63;3.17;;;;;;;40.24;19.25;99814.72;5025942;28;20058;-79
2021/06/17 08:38:21;;;;;;;5.63;3.25;;;;;;;41.13;18.09;99803.00;5022592;28;20056;-79
2021/06/17 08:40:50;;;;;;;4.10;2.97;;;;;;;41.92;16.99;99790.50;5024644;28;20586;-78
2021/06/17 08:43:17;;;;;;;4.22;3.00;;;;;;;42.09;16.14;99787.38;5029104;28;20499;-80
2021/06/17 08:45:48;;;;;;;5.40;3.10;;;;;;;42.43;16.19;99784.00;5033865;28;20061;-79
2021/06/17 08:48:15;;;;;;;4.38;2.90;;;;;;;42.84;14.99;99788.69;5033116;28;20056;-78
2021/06/17 08:50:43;;;;;;;3.75;2.95;;;;;;;43.13;14.78;99805.22;5026163;28;20057;-79
2021/06/17 08:53:10;;;;;;;5.10;3.20;;;;;;;43.01;14.66;99800.13;5025969;28;20045;-81
2021/06/17 08:55:39;;;;;;;3.22;2.85;;;;;;;43.86;14.40;99788.41;5030024;28;20522;-80
2021/06/17 08:58:07;;;;;;;3.40;2.78;;;;;;;44.07;13.67;99790.69;5036467;28;20057;-78
2021/06/17 09:00:40;;;;;;;4.55;3.20;;;;;;;44.13;13.43;99794.28;5031599;28;20056;-80
2021/06/17 09:03:10;;;;;;;3.03;2.72;;;;;;;43.90;13.97;99794.75;5036091;28;20053;-80
2021/06/17 09:05:39;;;;;;;3.25;2.80;;;;;;;43.32;14.58;99783.88;5032972;28;20056;-79
2021/06/17 09:08:08;;;;;;;3.35;3.05;;;;;;;43.79;14.32;99768.56;5036365;28;20530;-80
2021/06/17 09:10:39;;;;;;;3.15;2.75;;;;;;;43.67;14.54;99776.03;5034530;28;20099;-78
2021/06/17 09:13:09;;;;;;;4.88;3.08;;;;;;;44.24;13.72;99773.47;5034638;28;20045;-78
2021/06/17 09:15:42;;;;;;;5.78;2.83;;;;;;;45.09;13.74;99777.31;5030317;28;20054;-79
2021/06/17 09:18:11;;;;;;;5.38;3.15;;;;;;;45.11;12.72;99775.41;5035552;28;20068;-79
2021/06/17 09:20:38;;;;;;;3.90;3.15;;;;;;;45.10;13.17;99775.97;5034632;28;20047;-79
2021/06/17 09:23:24;;;;;;;3.47;3.08;;;;;;;45.22;13.23;99767.63;5028654;28;20046;-77
2021/06/17 09:25:53;;;;;;;3.42;3.10;;;;;;;45.97;12.55;99759.88;5034203;28;20045;-79
2021/06/17 09:28:22;;;;;;;4.78;3.08;;;;;;;46.40;12.12;99760.50;5032338;28;20065;-79
2021/06/17 09:30:49;;;;;;;5.05;3.17;;;;;;;46.56;12.35;99759.94;5034657;28;20049;-76
2021/06/17 09:33:17;;;;;;;4.60;3.10;;;;;;;46.49;12.04;99756.97;5034694;28;20048;-76
2021/06/17 09:35:53;;;;;;;4.47;2.88;;;;;;;46.87;11.53;99762.16;5029509;28;20049;-77
2021/06/17 09:38:21;;;;;;;3.22;2.80;;;;;;;47.56;10.71;99762.16;5033564;28;20053;-77
2021/06/17 09:40:50;;;;;;;3.72;2.80;;;;;;;47.77;10.34;99767.78;5023526;28;20054;-77
2021/06/17 09:43:24;;;;;;;3.85;2.65;;;;;;;48.59;9.59;99766.47;5025226;28;20053;-78
2021/06/17 09:45:55;;;;;;;3.30;2.55;;;;;;;48.82;9.97;99754.50;5031960;28;20053;-78
2021/06/17 09:48:31;;;;;;;3.13;2.78;;;;;;;49.75;9.99;99752.28;5033954;28;20061;-76
2021/06/17 09:50:58;;;;;;;5.63;2.88;;;;;;;50.09;9.92;99746.97;5023030;28;20061;-76
2021/06/17 09:53:27;;;;;;;3.25;2.90;;;;;;;50.15;9.70;99748.25;5032270;28;20064;-76
2021/06/17 09:55:55;;;;;;;3.85;2.67;;;;;;;49.74;9.21;99758.81;5027685;28;20387;-76
2021/06/17 09:58:38;;;;;;;3.38;2.72;;;;;;;51.02;8.39;99756.03;5034074;28;20058;-76
2021/06/17 10:01:11;;;;;;;5.03;2.40;;;;;;;51.20;8.09;99761.88;5030006;28;20057;-76
2021/06/17 10:03:40;;;;;;;3.25;2.75;;;;;;;51.30;7.67;99760.50;5028796;28;20056;-77
2021/06/17 10:06:18;;;;;;;4.25;2.60;;;;;;;49.91;8.32;99749.13;5021271;28;20061;-77
2021/06/17 10:08:46;;;;;;;2.67;2.47;;;;;;;49.93;8.40;99758.97;5030917;28;20399;-77
2021/06/17 10:11:14;;;;;;;3.35;2.40;;;;;;;49.82;8.72;99756.53;5025554;28;20057;-78
2021/06/17 10:13:44;;;;;;;4.18;2.35;;;;;;;49.13;8.87;99760.97;5031866;28;20087;-78
2021/06/17 10:16:16;;;;;;;3.95;2.60;;;;;;;49.83;8.78;99761.06;5030790;28;20049;-78
2021/06/17 10:18:44;;;;;;;4.13;2.50;;;;;;;50.36;8.52;99765.53;5027940;28;20509;-78
2021/06/17 10:21:14;;;;;;;4.22;2.50;;;;;;;49.56;9.27;99755.84;5003284;28;20562;-78
2021/06/17 10:23:43;;;;;;;4.35;2.70;;;;;;;50.39;8.65;99753.84;5030159;28;20049;-78
2021/06/17 10:26:11;;;;;;;4.03;2.30;;;;;;;50.31;7.11;99760.66;5027585;28;20058;-78
2021/06/17 10:28:40;;;;;;;3.60;2.15;;;;;;;49.77;8.28;99751.66;5022767;28;20045;-78
2021/06/17 10:31:09;;;;;;;2.67;2.38;;;;;;;49.86;7.82;99750.97;5031903;28;20057;-77
2021/06/17 10:33:38;;;;;;;3.72;2.40;;;;;;;50.61;7.45;99758.66;5028501;28;20050;-77
2021/06/17 10:36:25;;;;;;;3.50;2.38;;;;;;;50.57;8.08;99758.31;5022842;28;20065;-77
2021/06/17 10:39:14;;;;;;;3.28;2.53;;;;;;;50.90;7.83;99746.16;5031842;28;20057;-78
2021/06/17 10:42:24;;;;;;;3.20;2.50;;;;;;;51.62;7.25;99748.84;5021788;28;20072;-77
2021/06/17 10:44:54;;;;;;;3.47;2.30;;;;;;;51.35;7.83;99749.75;5031702;28;20049;-79
2021/06/17 10:48:03;;;;;;;2.92;2.20;;;;;;;51.17;8.16;99746.09;5028542;28;20147;-77
2021/06/17 10:50:54;;;;;;;2.58;2.30;;;;;;;51.65;8.01;99747.59;5033242;28;20072;-77
2021/06/17 10:53:31;;;;;;;2.72;2.33;;;;;;;52.05;7.31;99746.97;5031875;28;20495;-77
2021/06/17 10:56:01;;;;;;;;;;;;;;;53.06;7.03;99740.25;5020976;28;20050;-77
2021/06/17 10:58:55;;;;;;;2.83;2.50;;;;;;;52.87;6.43;99752.28;5026704;28;19944;-77
2021/06/17 11:01:31;;;;;;;3.63;2.53;;;;;;;51.93;7.41;99743.84;5020219;28;20049;-78
2021/06/17 11:04:04;;;;;;;3.00;2.20;;;;;;;52.09;7.50;99743.53;5029652;28;20053;-77
2021/06/17 11:07:25;;;;;;;2.72;2.50;;;;;;;52.34;7.60;99741.00;5024225;28;20050;-78
2021/06/17 11:10:10;;;;;;;2.72;2.20;;;;;;;51.84;7.10;99735.75;5026024;28;20053;-78
2021/06/17 11:13:04;;;;;;;2.70;2.30;;;;;;;51.58;7.27;99727.75;5031439;28;20057;-79
2021/06/17 11:15:43;;;;;;;2.58;2.38;;;;;;;52.33;7.94;99729.72;5025727;28;20056;-76
2021/06/17 11:18:11;;;;;;;3.40;2.90;;;;;;;52.70;7.22;99729.47;5019681;28;20415;-77
2021/06/17 11:20:42;;;;;;;4.65;2.63;;;;;;;52.55;7.70;99718.75;5025878;28;20053;-77
2021/06/17 11:23:16;;;;;;;2.95;2.75;;;;;;;51.55;7.60;99712.75;5031448;28;20053;-76
2021/06/17 11:25:46;;;;;;;2.72;2.53;;;;;;;51.92;7.49;99711.81;5023194;28;20056;-76
2021/06/17 11:28:15;;;;;;;3.58;2.80;;;;;;;52.30;7.36;99716.13;5029713;28;20407;-77
2021/06/17 11:30:59;;;;;;;3.10;2.42;;;;;;;52.02;7.18;99709.63;5019587;28;20060;-77
2021/06/17 11:33:34;;;;;;;3.13;2.60;;;;;;;51.86;7.68;99712.13;5018122;28;20049;-77
2021/06/17 11:36:05;;;;;;;2.90;2.60;;;;;;;52.26;7.40;99710.66;5029285;28;20394;-77
2021/06/17 11:38:36;;;;;;;7.95;2.80;;;;;;;52.05;7.34;99710.53;5028592;28;20045;-76
2021/06/17 11:41:11;;;;;;;3.72;2.47;;;;;;;51.41;7.47;99711.59;5017942;28;20054;-76
2021/06/17 11:43:40;;;;;;;3.13;2.53;;;;;;;51.87;6.57;99698.81;5015247;28;20054;-77
2021/06/17 11:46:22;;;;;;;3.10;2.80;;;;;;;52.01;7.19;99701.31;5020401;28;20049;-75
2021/06/17 11:48:54;;;;;;;4.28;2.63;;;;;;;50.74;7.94;99701.13;5029161;28;20069;-77
2021/06/17 11:51:22;;;;;;;3.63;2.70;;;;;;;50.93;7.68;99694.50;5017886;28;20061;-76
2021/06/17 11:53:53;;;;;;;2.80;2.50;;;;;;;51.26;7.67;99688.94;5020730;28;20045;-76